sensor_id;sensor_type;location;lat;lon;timestamp;pressure;altitude;pressure_sealevel;temperature;humidity
61026;BME280;46911;32.650;-16.902;2023-08-31T00:01:37;101655.13;;;22.15;65.42
61026;BME280;46911;32.650;-16.902;2023-08-31T00:03:38;101650.88;;;22.12;65.33
61026;BME280;46911;32.650;-16.902;2023-08-31T00:05:42;101642.50;;;22.05;65.19
61026;BME280;46911;32.650;-16.902;2023-08-31T00:07:43;101655.63;;;22.10;64.82
61026;BME280;46911;32.650;-16.902;2023-08-31T00:09:50;101655.75;;;22.08;64.03
61026;BME280;46911;32.650;-16.902;2023-08-31T00:11:51;101647.31;;;22.12;62.59
61026;BME280;46911;32.650;-16.902;2023-08-31T00:13:52;101647.31;;;22.12;62.06
61026;BME280;46911;32.650;-16.902;2023-08-31T00:16:00;101650.03;;;22.12;61.97
61026;BME280;46911;32.650;-16.902;2023-08-31T00:18:02;101634.50;;;22.04;61.75
61026;BME280;46911;32.650;-16.902;2023-08-31T00:20:07;101652.34;;;22.06;61.83
61026;BME280;46911;32.650;-16.902;2023-08-31T00:22:12;101651.81;;;22.03;61.63
61026;BME280;46911;32.650;-16.902;2023-08-31T00:24:13;101644.53;;;22.03;61.50
61026;BME280;46911;32.650;-16.902;2023-08-31T00:26:16;101633.44;;;21.97;61.34
61026;BME280;46911;32.650;-16.902;2023-08-31T00:28:20;101645.38;;;22.04;61.16
61026;BME280;46911;32.650;-16.902;2023-08-31T00:30:24;101642.09;;;22.00;61.09
61026;BME280;46911;32.650;-16.902;2023-08-31T00:32:32;101628.47;;;21.92;60.86
61026;BME280;46911;32.650;-16.902;2023-08-31T00:34:34;101627.78;;;21.90;60.76
61026;BME280;46911;32.650;-16.902;2023-08-31T00:36:38;101635.06;;;21.89;60.75
61026;BME280;46911;32.650;-16.902;2023-08-31T00:38:42;101631.78;;;21.86;60.96
61026;BME280;46911;32.650;-16.902;2023-08-31T00:40:44;101630.78;;;21.87;60.83
61026;BME280;46911;32.650;-16.902;2023-08-31T00:42:48;101634.50;;;21.86;60.45
61026;BME280;46911;32.650;-16.902;2023-08-31T00:44:49;101620.25;;;21.84;60.46
61026;BME280;46911;32.650;-16.902;2023-08-31T00:46:50;101622.34;;;21.90;60.43
61026;BME280;46911;32.650;-16.902;2023-08-31T00:48:54;101633.72;;;21.94;60.24
61026;BME280;46911;32.650;-16.902;2023-08-31T00:50:55;101616.53;;;21.85;59.87
61026;BME280;46911;32.650;-16.902;2023-08-31T00:52:59;101622.47;;;21.88;59.98
61026;BME280;46911;32.650;-16.902;2023-08-31T00:55:00;101614.97;;;21.82;59.82
61026;BME280;46911;32.650;-16.902;2023-08-31T00:57:05;101623.63;;;21.86;59.58
61026;BME280;46911;32.650;-16.902;2023-08-31T00:59:06;101620.63;;;21.89;59.35
61026;BME280;46911;32.650;-16.902;2023-08-31T01:05:54;101604.03;;;21.74;59.09
61026;BME280;46911;32.650;-16.902;2023-08-31T01:10:25;101617.63;;;21.74;59.26
61026;BME280;46911;32.650;-16.902;2023-08-31T01:12:40;101600.00;;;21.60;59.68
61026;BME280;46911;32.650;-16.902;2023-08-31T01:15:01;101616.59;;;21.57;59.81
61026;BME280;46911;32.650;-16.902;2023-08-31T01:17:08;101613.72;;;21.59;59.76
61026;BME280;46911;32.650;-16.902;2023-08-31T01:21:38;101608.78;;;21.54;60.48
61026;BME280;46911;32.650;-16.902;2023-08-31T01:23:54;101602.78;;;21.50;60.81
61026;BME280;46911;32.650;-16.902;2023-08-31T01:25:55;101613.78;;;21.49;61.05
61026;BME280;46911;32.650;-16.902;2023-08-31T01:27:58;101621.31;;;21.55;61.20
61026;BME280;46911;32.650;-16.902;2023-08-31T01:30:03;101612.47;;;21.53;61.36
61026;BME280;46911;32.650;-16.902;2023-08-31T01:32:08;101605.25;;;21.44;61.46
61026;BME280;46911;32.650;-16.902;2023-08-31T01:34:09;101598.81;;;21.45;61.56
61026;BME280;46911;32.650;-16.902;2023-08-31T01:36:26;101611.50;;;21.54;61.85
61026;BME280;46911;32.650;-16.902;2023-08-31T01:38:29;101607.50;;;21.48;61.76
61026;BME280;46911;32.650;-16.902;2023-08-31T01:42:42;101607.31;;;21.50;62.35
61026;BME280;46911;32.650;-16.902;2023-08-31T01:44:47;101593.84;;;21.40;62.24
61026;BME280;46911;32.650;-16.902;2023-08-31T01:46:52;101592.84;;;21.41;62.44
61026;BME280;46911;32.650;-16.902;2023-08-31T01:49:00;101602.38;;;21.45;62.18
61026;BME280;46911;32.650;-16.902;2023-08-31T01:51:03;101596.09;;;21.45;62.59
61026;BME280;46911;32.650;-16.902;2023-08-31T01:53:04;101599.50;;;21.47;62.62
61026;BME280;46911;32.650;-16.902;2023-08-31T01:55:10;101594.00;;;21.38;62.89
61026;BME280;46911;32.650;-16.902;2023-08-31T01:57:16;101576.00;;;21.37;62.76
61026;BME280;46911;32.650;-16.902;2023-08-31T01:59:37;101596.72;;;21.38;63.16
61026;BME280;46911;32.650;-16.902;2023-08-31T02:01:38;101582.44;;;21.36;63.17
61026;BME280;46911;32.650;-16.902;2023-08-31T02:03:41;101582.75;;;21.33;63.14
61026;BME280;46911;32.650;-16.902;2023-08-31T02:05:49;101577.63;;;21.30;63.38
61026;BME280;46911;32.650;-16.902;2023-08-31T02:07:52;101588.00;;;21.35;63.54
61026;BME280;46911;32.650;-16.902;2023-08-31T02:09:55;101583.47;;;21.35;63.71
61026;BME280;46911;32.650;-16.902;2023-08-31T02:11:59;101588.56;;;21.38;63.86
61026;BME280;46911;32.650;-16.902;2023-08-31T02:14:01;101576.75;;;21.30;63.71
61026;BME280;46911;32.650;-16.902;2023-08-31T02:16:04;101580.28;;;21.40;63.93
61026;BME280;46911;32.650;-16.902;2023-08-31T02:18:08;101584.53;;;21.43;63.72
61026;BME280;46911;32.650;-16.902;2023-08-31T02:20:11;101579.94;;;21.43;64.07
61026;BME280;46911;32.650;-16.902;2023-08-31T02:22:15;101575.94;;;21.47;64.09
61026;BME280;46911;32.650;-16.902;2023-08-31T02:24:16;101573.69;;;21.43;63.93
61026;BME280;46911;32.650;-16.902;2023-08-31T02:26:17;101580.34;;;21.48;63.88
61026;BME280;46911;32.650;-16.902;2023-08-31T02:28:22;101576.78;;;21.48;64.06
61026;BME280;46911;32.650;-16.902;2023-08-31T02:30:23;101571.19;;;21.49;63.92
61026;BME280;46911;32.650;-16.902;2023-08-31T02:32:24;101578.50;;;21.49;64.06
61026;BME280;46911;32.650;-16.902;2023-08-31T02:34:25;101576.63;;;21.49;63.98
61026;BME280;46911;32.650;-16.902;2023-08-31T02:36:26;101569.81;;;21.45;64.05
61026;BME280;46911;32.650;-16.902;2023-08-31T02:38:27;101573.34;;;21.46;64.03
61026;BME280;46911;32.650;-16.902;2023-08-31T02:40:28;101575.19;;;21.55;64.23
61026;BME280;46911;32.650;-16.902;2023-08-31T02:42:31;101579.44;;;21.57;63.91
61026;BME280;46911;32.650;-16.902;2023-08-31T02:44:32;101581.16;;;21.59;64.04
61026;BME280;46911;32.650;-16.902;2023-08-31T02:46:33;101576.78;;;21.66;63.94
61026;BME280;46911;32.650;-16.902;2023-08-31T02:48:34;101585.03;;;21.74;63.77
61026;BME280;46911;32.650;-16.902;2023-08-31T02:50:35;101575.00;;;21.74;63.50
61026;BME280;46911;32.650;-16.902;2023-08-31T02:52:40;101587.31;;;21.87;63.40
61026;BME280;46911;32.650;-16.902;2023-08-31T02:54:41;101586.00;;;21.91;62.73
61026;BME280;46911;32.650;-16.902;2023-08-31T02:56:44;101578.78;;;22.00;62.28
61026;BME280;46911;32.650;-16.902;2023-08-31T02:58:46;101579.94;;;21.97;62.14
61026;BME280;46911;32.650;-16.902;2023-08-31T03:00:52;101572.19;;;22.02;61.75
61026;BME280;46911;32.650;-16.902;2023-08-31T03:02:56;101583.25;;;22.09;61.56
61026;BME280;46911;32.650;-16.902;2023-08-31T03:05:00;101577.66;;;22.11;61.43
61026;BME280;46911;32.650;-16.902;2023-08-31T03:07:03;101580.53;;;22.09;61.38
61026;BME280;46911;32.650;-16.902;2023-08-31T03:09:07;101580.38;;;22.11;61.27
61026;BME280;46911;32.650;-16.902;2023-08-31T03:11:08;101577.84;;;22.09;61.22
61026;BME280;46911;32.650;-16.902;2023-08-31T03:13:12;101583.78;;;22.13;60.77
61026;BME280;46911;32.650;-16.902;2023-08-31T03:15:17;101589.22;;;22.13;60.88
61026;BME280;46911;32.650;-16.902;2023-08-31T03:17:20;101589.38;;;22.11;60.95
61026;BME280;46911;32.650;-16.902;2023-08-31T03:19:21;101579.66;;;22.08;60.58
61026;BME280;46911;32.650;-16.902;2023-08-31T03:21:27;101579.00;;;22.06;60.41
61026;BME280;46911;32.650;-16.902;2023-08-31T03:23:29;101580.34;;;22.02;60.65
61026;BME280;46911;32.650;-16.902;2023-08-31T03:25:31;101569.09;;;21.97;60.97
61026;BME280;46911;32.650;-16.902;2023-08-31T03:27:32;101558.63;;;21.84;61.00
61026;BME280;46911;32.650;-16.902;2023-08-31T03:29:36;101565.59;;;21.87;60.98
61026;BME280;46911;32.650;-16.902;2023-08-31T03:31:37;101567.09;;;21.81;61.06
61026;BME280;46911;32.650;-16.902;2023-08-31T03:33:40;101570.53;;;21.83;61.00
61026;BME280;46911;32.650;-16.902;2023-08-31T03:35:44;101554.28;;;21.73;61.17
61026;BME280;46911;32.650;-16.902;2023-08-31T03:37:49;101562.28;;;21.75;61.43
61026;BME280;46911;32.650;-16.902;2023-08-31T03:39:52;101554.22;;;21.65;61.29
61026;BME280;46911;32.650;-16.902;2023-08-31T03:41:53;101546.41;;;21.62;61.00
61026;BME280;46911;32.650;-16.902;2023-08-31T03:43:54;101552.84;;;21.61;60.85
61026;BME280;46911;32.650;-16.902;2023-08-31T03:46:01;101556.00;;;21.56;61.21
61026;BME280;46911;32.650;-16.902;2023-08-31T03:48:03;101558.03;;;21.54;61.13
61026;BME280;46911;32.650;-16.902;2023-08-31T03:50:07;101552.75;;;21.53;61.26
61026;BME280;46911;32.650;-16.902;2023-08-31T03:52:09;101546.94;;;21.48;61.08
61026;BME280;46911;32.650;-16.902;2023-08-31T03:54:14;101545.53;;;21.44;60.96
61026;BME280;46911;32.650;-16.902;2023-08-31T03:56:15;101560.50;;;21.48;60.91
61026;BME280;46911;32.650;-16.902;2023-08-31T03:58:22;101563.53;;;21.45;61.06
61026;BME280;46911;32.650;-16.902;2023-08-31T04:00:28;101558.41;;;21.41;61.56
61026;BME280;46911;32.650;-16.902;2023-08-31T04:02:28;101549.03;;;21.36;61.55
61026;BME280;46911;32.650;-16.902;2023-08-31T04:04:31;101552.69;;;21.45;61.46
61026;BME280;46911;32.650;-16.902;2023-08-31T04:06:35;101555.41;;;21.45;61.51
61026;BME280;46911;32.650;-16.902;2023-08-31T04:08:40;101553.28;;;21.38;61.61
61026;BME280;46911;32.650;-16.902;2023-08-31T04:10:40;101557.16;;;21.36;61.63
61026;BME280;46911;32.650;-16.902;2023-08-31T04:12:43;101537.00;;;21.20;61.92
61026;BME280;46911;32.650;-16.902;2023-08-31T04:14:46;101545.53;;;21.26;62.01
61026;BME280;46911;32.650;-16.902;2023-08-31T04:16:54;101555.47;;;21.17;62.13
61026;BME280;46911;32.650;-16.902;2023-08-31T04:18:59;101551.88;;;21.16;61.99
61026;BME280;46911;32.650;-16.902;2023-08-31T04:21:00;101542.81;;;21.07;62.24
61026;BME280;46911;32.650;-16.902;2023-08-31T04:23:04;101542.50;;;21.11;62.20
61026;BME280;46911;32.650;-16.902;2023-08-31T04:25:05;101547.22;;;21.09;62.56
61026;BME280;46911;32.650;-16.902;2023-08-31T04:27:06;101535.28;;;21.01;62.49
61026;BME280;46911;32.650;-16.902;2023-08-31T04:29:12;101542.09;;;21.05;62.46
61026;BME280;46911;32.650;-16.902;2023-08-31T04:31:15;101529.16;;;20.99;62.51
61026;BME280;46911;32.650;-16.902;2023-08-31T04:33:18;101544.97;;;21.04;62.54
61026;BME280;46911;32.650;-16.902;2023-08-31T04:35:19;101529.69;;;21.03;62.46
61026;BME280;46911;32.650;-16.902;2023-08-31T04:37:26;101547.84;;;21.02;62.71
61026;BME280;46911;32.650;-16.902;2023-08-31T04:39:27;101543.41;;;21.01;62.75
61026;BME280;46911;32.650;-16.902;2023-08-31T04:41:28;101538.06;;;20.92;63.08
61026;BME280;46911;32.650;-16.902;2023-08-31T04:43:31;101535.50;;;20.90;63.20
61026;BME280;46911;32.650;-16.902;2023-08-31T04:45:32;101553.84;;;20.96;63.11
61026;BME280;46911;32.650;-16.902;2023-08-31T04:47:36;101545.31;;;20.91;63.33
61026;BME280;46911;32.650;-16.902;2023-08-31T04:49:39;101539.66;;;20.84;63.48
61026;BME280;46911;32.650;-16.902;2023-08-31T04:51:43;101542.69;;;20.81;63.63
61026;BME280;46911;32.650;-16.902;2023-08-31T04:53:44;101536.00;;;20.76;63.86
61026;BME280;46911;32.650;-16.902;2023-08-31T04:55:47;101543.56;;;20.82;63.94
61026;BME280;46911;32.650;-16.902;2023-08-31T04:57:48;101544.31;;;20.74;63.80
61026;BME280;46911;32.650;-16.902;2023-08-31T04:59:51;101548.41;;;20.78;63.47
61026;BME280;46911;32.650;-16.902;2023-08-31T05:01:52;101540.03;;;20.71;63.39
61026;BME280;46911;32.650;-16.902;2023-08-31T05:03:53;101544.47;;;20.72;63.57
61026;BME280;46911;32.650;-16.902;2023-08-31T05:05:54;101546.59;;;20.69;63.29
61026;BME280;46911;32.650;-16.902;2023-08-31T05:07:57;101549.16;;;20.70;63.40
61026;BME280;46911;32.650;-16.902;2023-08-31T05:10:02;101557.13;;;20.72;63.36
61026;BME280;46911;32.650;-16.902;2023-08-31T05:12:06;101553.44;;;20.73;63.38
61026;BME280;46911;32.650;-16.902;2023-08-31T05:14:10;101552.59;;;20.72;63.09
61026;BME280;46911;32.650;-16.902;2023-08-31T05:16:13;101546.00;;;20.65;63.45
61026;BME280;46911;32.650;-16.902;2023-08-31T05:18:14;101548.16;;;20.71;63.41
61026;BME280;46911;32.650;-16.902;2023-08-31T05:20:17;101561.72;;;20.71;63.04
61026;BME280;46911;32.650;-16.902;2023-08-31T05:22:20;101550.88;;;20.71;63.38
61026;BME280;46911;32.650;-16.902;2023-08-31T05:24:25;101554.44;;;20.72;62.92
61026;BME280;46911;32.650;-16.902;2023-08-31T05:26:26;101553.44;;;20.73;63.01
61026;BME280;46911;32.650;-16.902;2023-08-31T05:28:30;101547.00;;;20.64;62.93
61026;BME280;46911;32.650;-16.902;2023-08-31T05:30:31;101555.31;;;20.72;62.90
61026;BME280;46911;32.650;-16.902;2023-08-31T05:32:35;101540.28;;;20.68;63.05
61026;BME280;46911;32.650;-16.902;2023-08-31T05:34:35;101532.78;;;20.62;62.97
61026;BME280;46911;32.650;-16.902;2023-08-31T05:36:39;101535.88;;;20.67;62.78
61026;BME280;46911;32.650;-16.902;2023-08-31T05:38:40;101537.19;;;20.63;62.79
61026;BME280;46911;32.650;-16.902;2023-08-31T05:40:41;101528.19;;;20.63;62.53
61026;BME280;46911;32.650;-16.902;2023-08-31T05:42:49;101527.78;;;20.57;62.07
61026;BME280;46911;32.650;-16.902;2023-08-31T05:44:49;101537.63;;;20.58;62.45
61026;BME280;46911;32.650;-16.902;2023-08-31T05:46:53;101528.69;;;20.48;62.14
61026;BME280;46911;32.650;-16.902;2023-08-31T05:48:53;101529.97;;;20.54;61.88
61026;BME280;46911;32.650;-16.902;2023-08-31T05:50:57;101538.78;;;20.56;61.90
61026;BME280;46911;32.650;-16.902;2023-08-31T05:53:03;101538.69;;;20.48;61.94
61026;BME280;46911;32.650;-16.902;2023-08-31T05:55:05;101546.22;;;20.54;62.04
61026;BME280;46911;32.650;-16.902;2023-08-31T05:57:07;101545.19;;;20.55;62.05
61026;BME280;46911;32.650;-16.902;2023-08-31T05:59:08;101542.94;;;20.50;62.06
61026;BME280;46911;32.650;-16.902;2023-08-31T06:01:11;101550.34;;;20.48;61.65
61026;BME280;46911;32.650;-16.902;2023-08-31T06:03:14;101552.94;;;20.50;62.08
61026;BME280;46911;32.650;-16.902;2023-08-31T06:05:18;101557.81;;;20.46;61.74
61026;BME280;46911;32.650;-16.902;2023-08-31T06:07:19;101565.63;;;20.49;61.69
61026;BME280;46911;32.650;-16.902;2023-08-31T06:09:19;101560.19;;;20.49;61.91
61026;BME280;46911;32.650;-16.902;2023-08-31T06:11:23;101563.91;;;20.48;62.12
61026;BME280;46911;32.650;-16.902;2023-08-31T06:13:27;101576.47;;;20.49;62.16
61026;BME280;46911;32.650;-16.902;2023-08-31T06:15:28;101568.34;;;20.49;62.17
61026;BME280;46911;32.650;-16.902;2023-08-31T06:17:34;101570.63;;;20.44;62.27
61026;BME280;46911;32.650;-16.902;2023-08-31T06:19:42;101565.81;;;20.38;62.37
61026;BME280;46911;32.650;-16.902;2023-08-31T06:21:46;101575.78;;;20.37;62.51
61026;BME280;46911;32.650;-16.902;2023-08-31T06:23:48;101588.34;;;20.38;62.79
61026;BME280;46911;32.650;-16.902;2023-08-31T06:25:51;101587.66;;;20.36;62.90
61026;BME280;46911;32.650;-16.902;2023-08-31T06:27:58;101579.94;;;20.32;63.01
61026;BME280;46911;32.650;-16.902;2023-08-31T06:30:01;101589.53;;;20.26;63.61
61026;BME280;46911;32.650;-16.902;2023-08-31T06:32:05;101596.94;;;20.34;63.72
61026;BME280;46911;32.650;-16.902;2023-08-31T06:34:09;101594.34;;;20.32;63.94
61026;BME280;46911;32.650;-16.902;2023-08-31T06:36:13;101586.53;;;20.29;64.80
61026;BME280;46911;32.650;-16.902;2023-08-31T06:38:13;101593.19;;;20.35;64.86
61026;BME280;46911;32.650;-16.902;2023-08-31T06:40:14;101598.91;;;20.32;64.88
61026;BME280;46911;32.650;-16.902;2023-08-31T06:42:15;101602.34;;;20.34;65.02
61026;BME280;46911;32.650;-16.902;2023-08-31T06:44:20;101588.38;;;20.29;65.28
61026;BME280;46911;32.650;-16.902;2023-08-31T06:46:21;101603.19;;;20.34;65.03
61026;BME280;46911;32.650;-16.902;2023-08-31T06:48:22;101604.19;;;20.33;65.24
61026;BME280;46911;32.650;-16.902;2023-08-31T06:50:23;101614.44;;;20.39;65.33
61026;BME280;46911;32.650;-16.902;2023-08-31T06:52:27;101614.88;;;20.45;65.56
61026;BME280;46911;32.650;-16.902;2023-08-31T06:54:30;101607.88;;;20.42;65.28
61026;BME280;46911;32.650;-16.902;2023-08-31T06:56:35;101616.28;;;20.49;65.52
61026;BME280;46911;32.650;-16.902;2023-08-31T06:58:38;101620.97;;;20.56;65.10
61026;BME280;46911;32.650;-16.902;2023-08-31T07:00:41;101608.56;;;20.54;65.22
61026;BME280;46911;32.650;-16.902;2023-08-31T07:02:44;101625.78;;;20.63;65.09
61026;BME280;46911;32.650;-16.902;2023-08-31T07:04:45;101626.50;;;20.65;65.24
61026;BME280;46911;32.650;-16.902;2023-08-31T07:06:48;101625.50;;;20.66;65.30
61026;BME280;46911;32.650;-16.902;2023-08-31T07:08:50;101611.38;;;20.62;65.16
61026;BME280;46911;32.650;-16.902;2023-08-31T07:10:51;101630.34;;;20.72;65.06
61026;BME280;46911;32.650;-16.902;2023-08-31T07:12:54;101635.59;;;20.73;65.13
61026;BME280;46911;32.650;-16.902;2023-08-31T07:14:55;101636.31;;;20.76;64.86
61026;BME280;46911;32.650;-16.902;2023-08-31T07:16:56;101633.06;;;20.72;64.65
61026;BME280;46911;32.650;-16.902;2023-08-31T07:18:57;101648.13;;;20.84;64.82
61026;BME280;46911;32.650;-16.902;2023-08-31T07:20:58;101632.72;;;20.85;64.92
61026;BME280;46911;32.650;-16.902;2023-08-31T07:22:59;101638.56;;;20.90;64.71
61026;BME280;46911;32.650;-16.902;2023-08-31T07:25:00;101642.66;;;20.94;64.69
61026;BME280;46911;32.650;-16.902;2023-08-31T07:27:02;101646.78;;;20.98;64.72
61026;BME280;46911;32.650;-16.902;2023-08-31T07:29:07;101642.22;;;20.99;64.55
61026;BME280;46911;32.650;-16.902;2023-08-31T07:31:10;101650.31;;;21.09;64.42
61026;BME280;46911;32.650;-16.902;2023-08-31T07:33:11;101642.19;;;21.09;64.40
61026;BME280;46911;32.650;-16.902;2023-08-31T07:35:11;101658.25;;;21.20;64.19
61026;BME280;46911;32.650;-16.902;2023-08-31T07:37:12;101658.81;;;21.23;64.29
61026;BME280;46911;32.650;-16.902;2023-08-31T07:39:13;101667.28;;;21.38;64.00
61026;BME280;46911;32.650;-16.902;2023-08-31T07:41:14;101655.41;;;21.39;63.77
61026;BME280;46911;32.650;-16.902;2023-08-31T07:43:15;101661.50;;;21.51;63.48
61026;BME280;46911;32.650;-16.902;2023-08-31T07:45:18;101654.50;;;21.49;63.43
61026;BME280;46911;32.650;-16.902;2023-08-31T07:47:19;101663.91;;;21.54;63.78
61026;BME280;46911;32.650;-16.902;2023-08-31T07:49:20;101660.22;;;21.55;63.52
61026;BME280;46911;32.650;-16.902;2023-08-31T07:51:21;101673.38;;;21.68;63.62
61026;BME280;46911;32.650;-16.902;2023-08-31T07:53:25;101677.66;;;21.71;63.37
61026;BME280;46911;32.650;-16.902;2023-08-31T07:55:28;101669.50;;;21.71;63.30
61026;BME280;46911;32.650;-16.902;2023-08-31T07:57:32;101670.38;;;21.71;63.43
61026;BME280;46911;32.650;-16.902;2023-08-31T07:59:34;101665.63;;;21.73;63.28
61026;BME280;46911;32.650;-16.902;2023-08-31T08:01:35;101672.16;;;21.81;63.09
61026;BME280;46911;32.650;-16.902;2023-08-31T08:03:36;101682.41;;;21.87;63.27
61026;BME280;46911;32.650;-16.902;2023-08-31T08:05:39;101674.78;;;21.90;63.04
61026;BME280;46911;32.650;-16.902;2023-08-31T08:07:43;101676.50;;;21.92;62.93
61026;BME280;46911;32.650;-16.902;2023-08-31T08:09:44;101675.19;;;21.96;62.94
61026;BME280;46911;32.650;-16.902;2023-08-31T08:11:48;101679.13;;;22.01;63.03
61026;BME280;46911;32.650;-16.902;2023-08-31T08:13:49;101686.81;;;22.06;63.02
61026;BME280;46911;32.650;-16.902;2023-08-31T08:15:54;101672.75;;;22.11;62.84
61026;BME280;46911;32.650;-16.902;2023-08-31T08:17:55;101688.69;;;22.23;62.46
61026;BME280;46911;32.650;-16.902;2023-08-31T08:19:57;101685.47;;;22.28;62.45
61026;BME280;46911;32.650;-16.902;2023-08-31T08:21:59;101677.47;;;22.27;62.28
61026;BME280;46911;32.650;-16.902;2023-08-31T08:23:59;101677.69;;;22.33;62.09
61026;BME280;46911;32.650;-16.902;2023-08-31T08:26:00;101681.34;;;22.42;62.16
61026;BME280;46911;32.650;-16.902;2023-08-31T08:28:04;101684.66;;;22.54;61.97
61026;BME280;46911;32.650;-16.902;2023-08-31T08:30:07;101695.28;;;22.65;61.86
61026;BME280;46911;32.650;-16.902;2023-08-31T08:32:08;101686.78;;;22.68;61.65
61026;BME280;46911;32.650;-16.902;2023-08-31T08:34:11;101687.16;;;22.73;61.72
61026;BME280;46911;32.650;-16.902;2023-08-31T08:36:17;101706.28;;;22.90;61.57
61026;BME280;46911;32.650;-16.902;2023-08-31T08:38:20;101702.97;;;23.04;61.47
61026;BME280;46911;32.650;-16.902;2023-08-31T08:40:24;101706.63;;;23.13;60.87
61026;BME280;46911;32.650;-16.902;2023-08-31T08:42:29;101713.47;;;23.26;60.75
61026;BME280;46911;32.650;-16.902;2023-08-31T08:44:33;101711.31;;;23.37;60.26
61026;BME280;46911;32.650;-16.902;2023-08-31T08:46:39;101718.88;;;23.52;60.88
61026;BME280;46911;32.650;-16.902;2023-08-31T08:48:44;101711.56;;;23.69;60.65
61026;BME280;46911;32.650;-16.902;2023-08-31T08:50:48;101715.00;;;23.79;60.58
61026;BME280;46911;32.650;-16.902;2023-08-31T08:52:49;101722.56;;;23.94;60.43
61026;BME280;46911;32.650;-16.902;2023-08-31T08:54:51;101718.31;;;24.07;60.71
61026;BME280;46911;32.650;-16.902;2023-08-31T08:56:56;101723.75;;;24.16;59.45
61026;BME280;46911;32.650;-16.902;2023-08-31T08:59:01;101731.94;;;24.32;58.84
61026;BME280;46911;32.650;-16.902;2023-08-31T09:01:03;101717.63;;;24.47;58.21
61026;BME280;46911;32.650;-16.902;2023-08-31T09:03:04;101721.72;;;24.67;57.14
61026;BME280;46911;32.650;-16.902;2023-08-31T09:05:05;101721.34;;;24.87;56.85
61026;BME280;46911;32.650;-16.902;2023-08-31T09:07:06;101725.47;;;25.22;56.29
61026;BME280;46911;32.650;-16.902;2023-08-31T09:09:10;101735.44;;;25.55;55.81
61026;BME280;46911;32.650;-16.902;2023-08-31T09:11:19;101725.94;;;25.97;55.20
61026;BME280;46911;32.650;-16.902;2023-08-31T09:13:29;101724.16;;;26.13;53.37
61026;BME280;46911;32.650;-16.902;2023-08-31T09:15:47;101721.16;;;26.46;53.75
61026;BME280;46911;32.650;-16.902;2023-08-31T09:17:50;101723.31;;;26.88;52.90
61026;BME280;46911;32.650;-16.902;2023-08-31T09:20:01;101715.66;;;27.44;51.44
61026;BME280;46911;32.650;-16.902;2023-08-31T09:22:10;101719.09;;;27.67;50.86
61026;BME280;46911;32.650;-16.902;2023-08-31T09:24:11;101726.38;;;27.97;50.15
61026;BME280;46911;32.650;-16.902;2023-08-31T09:26:14;101722.88;;;27.66;50.27
61026;BME280;46911;32.650;-16.902;2023-08-31T09:28:16;101728.72;;;28.00;49.94
61026;BME280;46911;32.650;-16.902;2023-08-31T09:30:17;101732.19;;;28.30;49.03
61026;BME280;46911;32.650;-16.902;2023-08-31T09:32:25;101726.69;;;28.30;48.58
61026;BME280;46911;32.650;-16.902;2023-08-31T09:34:34;101725.25;;;28.34;48.55
61026;BME280;46911;32.650;-16.902;2023-08-31T09:36:36;101726.56;;;28.38;48.77
61026;BME280;46911;32.650;-16.902;2023-08-31T09:38:44;101726.88;;;28.79;48.68
61026;BME280;46911;32.650;-16.902;2023-08-31T09:40:45;101720.97;;;29.23;47.35
61026;BME280;46911;32.650;-16.902;2023-08-31T09:42:51;101745.16;;;28.93;47.46
61026;BME280;46911;32.650;-16.902;2023-08-31T09:44:55;101726.47;;;28.03;49.06
61026;BME280;46911;32.650;-16.902;2023-08-31T09:46:56;101741.00;;;28.04;48.69
61026;BME280;46911;32.650;-16.902;2023-08-31T09:49:01;101740.56;;;27.64;49.96
61026;BME280;46911;32.650;-16.902;2023-08-31T09:51:05;101728.75;;;27.48;50.10
61026;BME280;46911;32.650;-16.902;2023-08-31T09:53:10;101733.13;;;26.83;51.59
61026;BME280;46911;32.650;-16.902;2023-08-31T09:55:14;101729.06;;;26.79;51.98
61026;BME280;46911;32.650;-16.902;2023-08-31T09:57:17;101734.53;;;26.40;52.76
61026;BME280;46911;32.650;-16.902;2023-08-31T09:59:23;101740.06;;;26.32;52.76
61026;BME280;46911;32.650;-16.902;2023-08-31T10:01:27;101738.69;;;26.36;53.02
61026;BME280;46911;32.650;-16.902;2023-08-31T10:03:28;101735.41;;;26.56;53.42
61026;BME280;46911;32.650;-16.902;2023-08-31T10:05:30;101725.97;;;26.59;52.83
61026;BME280;46911;32.650;-16.902;2023-08-31T10:07:34;101726.34;;;26.40;53.55
61026;BME280;46911;32.650;-16.902;2023-08-31T10:09:38;101744.38;;;26.27;53.83
61026;BME280;46911;32.650;-16.902;2023-08-31T10:11:39;101740.38;;;26.14;54.56
61026;BME280;46911;32.650;-16.902;2023-08-31T10:13:44;101745.47;;;26.17;54.17
61026;BME280;46911;32.650;-16.902;2023-08-31T10:15:51;101742.97;;;26.31;53.88
61026;BME280;46911;32.650;-16.902;2023-08-31T10:17:57;101738.94;;;26.03;54.37
61026;BME280;46911;32.650;-16.902;2023-08-31T10:20:02;101753.06;;;26.30;53.98
61026;BME280;46911;32.650;-16.902;2023-08-31T10:22:06;101745.97;;;26.21;53.49
61026;BME280;46911;32.650;-16.902;2023-08-31T10:24:09;101753.13;;;26.45;54.20
61026;BME280;46911;32.650;-16.902;2023-08-31T10:26:25;101753.06;;;26.92;53.20
61026;BME280;46911;32.650;-16.902;2023-08-31T10:28:27;101766.69;;;27.45;51.18
61026;BME280;46911;32.650;-16.902;2023-08-31T10:30:31;101748.44;;;27.73;50.21
61026;BME280;46911;32.650;-16.902;2023-08-31T10:32:35;101765.69;;;28.04;48.63
61026;BME280;46911;32.650;-16.902;2023-08-31T10:34:36;101765.19;;;28.00;49.21
61026;BME280;46911;32.650;-16.902;2023-08-31T10:36:43;101771.44;;;28.09;48.57
61026;BME280;46911;32.650;-16.902;2023-08-31T10:39:00;101759.53;;;28.02;48.10
61026;BME280;46911;32.650;-16.902;2023-08-31T10:43:18;101778.03;;;28.36;48.15